sensor_id;sensor_type;location;lat;lon;timestamp;temperature;humidity
52397;DHT22;38322;53.108;6.308;2024-02-26T06:02:11;3.30;99.90
52397;DHT22;38322;53.108;6.308;2024-02-26T06:04:37;3.20;99.90
52397;DHT22;38322;53.108;6.308;2024-02-26T06:07:04;3.30;99.90
52397;DHT22;38322;53.108;6.308;2024-02-26T06:09:30;3.20;99.90
52397;DHT22;38322;53.108;6.308;2024-02-26T06:11:56;3.30;99.90
52397;DHT22;38322;53.108;6.308;2024-02-26T06:14:22;3.30;99.90
52397;DHT22;38322;53.108;6.308;2024-02-26T06:16:49;3.20;99.90
52397;DHT22;38322;53.108;6.308;2024-02-26T06:19:15;3.30;99.90
52397;DHT22;38322;53.108;6.308;2024-02-26T06:21:40;3.30;99.90
52397;DHT22;38322;53.108;6.308;2024-02-26T06:24:06;3.30;99.90
52397;DHT22;38322;53.108;6.308;2024-02-26T06:26:32;3.30;99.90
52397;DHT22;38322;53.108;6.308;2024-02-26T06:28:59;3.30;99.90
52397;DHT22;38322;53.108;6.308;2024-02-26T06:31:25;3.30;99.90
52397;DHT22;38322;53.108;6.308;2024-02-26T06:33:53;3.40;99.90
52397;DHT22;38322;53.108;6.308;2024-02-26T06:36:19;3.40;99.90
52397;DHT22;38322;53.108;6.308;2024-02-26T06:38:45;3.40;99.90
52397;DHT22;38322;53.108;6.308;2024-02-26T06:41:11;3.40;99.90
52397;DHT22;38322;53.108;6.308;2024-02-26T06:43:37;3.40;99.90
52397;DHT22;38322;53.108;6.308;2024-02-26T06:46:03;3.40;99.90
52397;DHT22;38322;53.108;6.308;2024-02-26T06:48:29;3.40;99.90
52397;DHT22;38322;53.108;6.308;2024-02-26T06:50:55;3.40;99.90
52397;DHT22;38322;53.108;6.308;2024-02-26T06:53:20;3.40;99.90
52397;DHT22;38322;53.108;6.308;2024-02-26T06:55:46;3.40;99.90
52397;DHT22;38322;53.108;6.308;2024-02-26T06:58:12;3.40;99.90
52397;DHT22;38322;53.108;6.308;2024-02-26T07:00:38;3.40;99.90
52397;DHT22;38322;53.108;6.308;2024-02-26T07:03:04;3.50;99.90
52397;DHT22;38322;53.108;6.308;2024-02-26T07:05:30;3.50;99.90
52397;DHT22;38322;53.108;6.308;2024-02-26T07:07:56;3.50;99.90
52397;DHT22;38322;53.108;6.308;2024-02-26T07:10:23;3.50;99.90
52397;DHT22;38322;53.108;6.308;2024-02-26T07:12:49;3.60;99.90
52397;DHT22;38322;53.108;6.308;2024-02-26T07:15:15;3.60;99.90
52397;DHT22;38322;53.108;6.308;2024-02-26T07:17:41;3.60;99.90
52397;DHT22;38322;53.108;6.308;2024-02-26T07:20:08;3.50;99.90
52397;DHT22;38322;53.108;6.308;2024-02-26T07:22:34;3.60;99.90
52397;DHT22;38322;53.108;6.308;2024-02-26T07:25:00;3.60;99.90
52397;DHT22;38322;53.108;6.308;2024-02-26T07:27:26;3.50;99.90
52397;DHT22;38322;53.108;6.308;2024-02-26T07:29:52;3.50;99.90
52397;DHT22;38322;53.108;6.308;2024-02-26T07:32:18;3.50;99.90
52397;DHT22;38322;53.108;6.308;2024-02-26T07:34:44;3.60;99.90
52397;DHT22;38322;53.108;6.308;2024-02-26T07:37:11;3.60;99.90
52397;DHT22;38322;53.108;6.308;2024-02-26T07:39:37;3.60;99.90
52397;DHT22;38322;53.108;6.308;2024-02-26T07:42:03;3.60;99.90
52397;DHT22;38322;53.108;6.308;2024-02-26T07:44:29;3.60;99.90
52397;DHT22;38322;53.108;6.308;2024-02-26T07:46:55;3.60;99.90
52397;DHT22;38322;53.108;6.308;2024-02-26T07:49:21;3.60;99.90
52397;DHT22;38322;53.108;6.308;2024-02-26T07:51:46;3.60;99.90
52397;DHT22;38322;53.108;6.308;2024-02-26T07:54:12;3.60;99.90
52397;DHT22;38322;53.108;6.308;2024-02-26T07:56:38;3.70;99.90
52397;DHT22;38322;53.108;6.308;2024-02-26T07:59:04;3.70;99.90
52397;DHT22;38322;53.108;6.308;2024-02-26T08:01:30;3.70;99.90
52397;DHT22;38322;53.108;6.308;2024-02-26T08:03:56;3.70;99.90
52397;DHT22;38322;53.108;6.308;2024-02-26T08:06:23;3.80;99.90
52397;DHT22;38322;53.108;6.308;2024-02-26T08:08:49;3.80;99.90
52397;DHT22;38322;53.108;6.308;2024-02-26T08:11:15;3.80;99.90
52397;DHT22;38322;53.108;6.308;2024-02-26T08:13:42;3.80;99.90
52397;DHT22;38322;53.108;6.308;2024-02-26T08:16:08;3.80;99.90
52397;DHT22;38322;53.108;6.308;2024-02-26T08:18:33;3.90;99.90
52397;DHT22;38322;53.108;6.308;2024-02-26T08:20:59;3.80;99.90
52397;DHT22;38322;53.108;6.308;2024-02-26T08:23:25;3.80;99.90
52397;DHT22;38322;53.108;6.308;2024-02-26T08:25:51;3.90;99.90
52397;DHT22;38322;53.108;6.308;2024-02-26T08:28:17;3.90;99.90
52397;DHT22;38322;53.108;6.308;2024-02-26T08:30:44;3.90;99.90
52397;DHT22;38322;53.108;6.308;2024-02-26T08:33:11;3.90;99.90
52397;DHT22;38322;53.108;6.308;2024-02-26T08:35:39;3.90;99.90
52397;DHT22;38322;53.108;6.308;2024-02-26T08:38:05;3.90;99.90
52397;DHT22;38322;53.108;6.308;2024-02-26T08:40:31;4.00;99.90
52397;DHT22;38322;53.108;6.308;2024-02-26T08:42:58;4.00;99.90
52397;DHT22;38322;53.108;6.308;2024-02-26T08:45:24;4.00;99.90
52397;DHT22;38322;53.108;6.308;2024-02-26T08:47:53;4.10;99.90
52397;DHT22;38322;53.108;6.308;2024-02-26T08:50:19;4.10;99.90
52397;DHT22;38322;53.108;6.308;2024-02-26T08:52:47;4.10;99.90
52397;DHT22;38322;53.108;6.308;2024-02-26T08:55:17;4.20;99.90
52397;DHT22;38322;53.108;6.308;2024-02-26T08:57:43;4.20;99.90
52397;DHT22;38322;53.108;6.308;2024-02-26T09:00:10;4.20;99.90
52397;DHT22;38322;53.108;6.308;2024-02-26T09:02:37;4.30;99.90
52397;DHT22;38322;53.108;6.308;2024-02-26T09:05:08;4.30;99.90
52397;DHT22;38322;53.108;6.308;2024-02-26T09:07:34;4.30;99.90
52397;DHT22;38322;53.108;6.308;2024-02-26T09:10:00;4.30;99.90
52397;DHT22;38322;53.108;6.308;2024-02-26T09:12:26;4.40;99.90
52397;DHT22;38322;53.108;6.308;2024-02-26T09:14:54;4.40;99.90
52397;DHT22;38322;53.108;6.308;2024-02-26T09:17:23;4.40;99.90
52397;DHT22;38322;53.108;6.308;2024-02-26T09:19:49;4.50;99.90
52397;DHT22;38322;53.108;6.308;2024-02-26T09:22:15;4.50;99.90
52397;DHT22;38322;53.108;6.308;2024-02-26T09:24:42;4.50;99.90
52397;DHT22;38322;53.108;6.308;2024-02-26T09:27:09;4.50;99.90
52397;DHT22;38322;53.108;6.308;2024-02-26T09:29:36;4.50;99.90
52397;DHT22;38322;53.108;6.308;2024-02-26T09:32:02;4.60;99.90
52397;DHT22;38322;53.108;6.308;2024-02-26T09:34:29;4.70;99.90
52397;DHT22;38322;53.108;6.308;2024-02-26T09:36:55;4.60;99.90
52397;DHT22;38322;53.108;6.308;2024-02-26T09:39:22;4.60;99.90
52397;DHT22;38322;53.108;6.308;2024-02-26T09:41:49;4.70;99.90
52397;DHT22;38322;53.108;6.308;2024-02-26T09:44:19;4.80;99.90
52397;DHT22;38322;53.108;6.308;2024-02-26T09:46:47;4.70;99.90
52397;DHT22;38322;53.108;6.308;2024-02-26T09:49:17;4.70;99.90
52397;DHT22;38322;53.108;6.308;2024-02-26T09:51:44;4.80;99.90
52397;DHT22;38322;53.108;6.308;2024-02-26T09:54:10;4.80;99.90
52397;DHT22;38322;53.108;6.308;2024-02-26T09:56:39;4.80;99.90
52397;DHT22;38322;53.108;6.308;2024-02-26T09:59:11;4.80;99.90
52397;DHT22;38322;53.108;6.308;2024-02-26T10:01:40;4.80;99.90
52397;DHT22;38322;53.108;6.308;2024-02-26T10:04:08;4.90;99.90
52397;DHT22;38322;53.108;6.308;2024-02-26T10:06:37;4.90;99.90
52397;DHT22;38322;53.108;6.308;2024-02-26T10:09:03;4.90;99.90
52397;DHT22;38322;53.108;6.308;2024-02-26T10:11:33;5.00;99.90
52397;DHT22;38322;53.108;6.308;2024-02-26T10:13:58;5.00;99.90
52397;DHT22;38322;53.108;6.308;2024-02-26T10:16:25;5.00;99.90
52397;DHT22;38322;53.108;6.308;2024-02-26T10:18:52;5.00;99.90
52397;DHT22;38322;53.108;6.308;2024-02-26T10:21:20;5.00;99.90
52397;DHT22;38322;53.108;6.308;2024-02-26T10:23:47;5.00;99.90
52397;DHT22;38322;53.108;6.308;2024-02-26T10:26:14;4.90;99.90
52397;DHT22;38322;53.108;6.308;2024-02-26T10:28:41;5.00;99.90
52397;DHT22;38322;53.108;6.308;2024-02-26T10:31:08;5.10;99.90
52397;DHT22;38322;53.108;6.308;2024-02-26T10:33:36;5.10;99.90
52397;DHT22;38322;53.108;6.308;2024-02-26T10:36:03;5.10;99.90
52397;DHT22;38322;53.108;6.308;2024-02-26T10:38:30;5.10;99.90
52397;DHT22;38322;53.108;6.308;2024-02-26T10:40:56;5.10;99.90
52397;DHT22;38322;53.108;6.308;2024-02-26T10:43:22;5.20;99.90
52397;DHT22;38322;53.108;6.308;2024-02-26T10:45:48;5.20;99.90
52397;DHT22;38322;53.108;6.308;2024-02-26T10:48:14;5.20;99.90
52397;DHT22;38322;53.108;6.308;2024-02-26T10:50:41;5.20;99.90
52397;DHT22;38322;53.108;6.308;2024-02-26T10:53:20;5.20;99.90
52397;DHT22;38322;53.108;6.308;2024-02-26T10:55:51;5.30;99.90
52397;DHT22;38322;53.108;6.308;2024-02-26T10:58:18;5.30;99.90
52397;DHT22;38322;53.108;6.308;2024-02-26T11:00:46;5.20;99.90
52397;DHT22;38322;53.108;6.308;2024-02-26T11:03:14;5.30;99.90
52397;DHT22;38322;53.108;6.308;2024-02-26T11:05:44;5.30;99.90
52397;DHT22;38322;53.108;6.308;2024-02-26T11:08:11;5.30;99.90
52397;DHT22;38322;53.108;6.308;2024-02-26T11:10:38;5.30;99.90
52397;DHT22;38322;53.108;6.308;2024-02-26T11:13:06;5.30;99.90
52397;DHT22;38322;53.108;6.308;2024-02-26T11:15:35;5.30;99.90
52397;DHT22;38322;53.108;6.308;2024-02-26T11:18:01;5.40;99.90
52397;DHT22;38322;53.108;6.308;2024-02-26T11:20:28;5.40;99.90
52397;DHT22;38322;53.108;6.308;2024-02-26T11:22:56;5.40;99.90
52397;DHT22;38322;53.108;6.308;2024-02-26T11:25:22;5.50;99.90
52397;DHT22;38322;53.108;6.308;2024-02-26T11:27:53;5.50;99.90
52397;DHT22;38322;53.108;6.308;2024-02-26T11:30:20;5.60;99.90
52397;DHT22;38322;53.108;6.308;2024-02-26T11:32:47;5.60;99.90
52397;DHT22;38322;53.108;6.308;2024-02-26T11:35:14;5.60;99.90
52397;DHT22;38322;53.108;6.308;2024-02-26T11:37:57;5.60;99.90
52397;DHT22;38322;53.108;6.308;2024-02-26T11:40:24;5.70;99.90
52397;DHT22;38322;53.108;6.308;2024-02-26T11:42:51;5.70;99.90
52397;DHT22;38322;53.108;6.308;2024-02-26T11:48:12;5.80;99.90
52397;DHT22;38322;53.108;6.308;2024-02-26T11:50:39;5.80;99.90
52397;DHT22;38322;53.108;6.308;2024-02-26T11:53:25;5.80;99.90
52397;DHT22;38322;53.108;6.308;2024-02-26T11:58:43;5.90;99.90
52397;DHT22;38322;53.108;6.308;2024-02-26T12:04:02;5.90;99.90
52397;DHT22;38322;53.108;6.308;2024-02-26T12:06:30;5.80;99.90
52397;DHT22;38322;53.108;6.308;2024-02-26T12:08:56;5.80;99.90
52397;DHT22;38322;53.108;6.308;2024-02-26T12:11:22;5.80;99.90
52397;DHT22;38322;53.108;6.308;2024-02-26T12:13:48;5.80;99.90
52397;DHT22;38322;53.108;6.308;2024-02-26T12:16:36;5.80;99.90
52397;DHT22;38322;53.108;6.308;2024-02-26T12:19:07;5.80;99.90
52397;DHT22;38322;53.108;6.308;2024-02-26T12:21:35;5.70;99.90
52397;DHT22;38322;53.108;6.308;2024-02-26T12:24:13;5.70;99.90
52397;DHT22;38322;53.108;6.308;2024-02-26T12:26:39;5.70;99.90
52397;DHT22;38322;53.108;6.308;2024-02-26T12:29:06;5.70;99.90
52397;DHT22;38322;53.108;6.308;2024-02-26T12:31:33;5.70;99.90
52397;DHT22;38322;53.108;6.308;2024-02-26T12:34:00;5.70;99.90
52397;DHT22;38322;53.108;6.308;2024-02-26T12:36:26;5.80;99.90
52397;DHT22;38322;53.108;6.308;2024-02-26T12:38:53;5.70;99.90
52397;DHT22;38322;53.108;6.308;2024-02-26T12:41:20;5.60;99.90
52397;DHT22;38322;53.108;6.308;2024-02-26T12:43:46;5.60;99.90
52397;DHT22;38322;53.108;6.308;2024-02-26T12:46:12;5.50;99.90
52397;DHT22;38322;53.108;6.308;2024-02-26T12:48:41;5.50;99.90
52397;DHT22;38322;53.108;6.308;2024-02-26T12:51:08;5.50;99.90
52397;DHT22;38322;53.108;6.308;2024-02-26T12:53:35;5.50;99.90
52397;DHT22;38322;53.108;6.308;2024-02-26T12:56:02;5.40;99.90
52397;DHT22;38322;53.108;6.308;2024-02-26T12:58:29;5.40;99.90
52397;DHT22;38322;53.108;6.308;2024-02-26T13:00:56;5.40;99.90
52397;DHT22;38322;53.108;6.308;2024-02-26T13:03:22;5.40;99.90
52397;DHT22;38322;53.108;6.308;2024-02-26T13:05:50;5.40;99.90
52397;DHT22;38322;53.108;6.308;2024-02-26T13:08:20;5.40;99.90
52397;DHT22;38322;53.108;6.308;2024-02-26T13:10:47;5.40;99.90
52397;DHT22;38322;53.108;6.308;2024-02-26T13:13:16;5.40;99.90
52397;DHT22;38322;53.108;6.308;2024-02-26T13:15:44;5.30;99.90
52397;DHT22;38322;53.108;6.308;2024-02-26T13:18:10;5.30;99.90
52397;DHT22;38322;53.108;6.308;2024-02-26T13:20:37;5.30;99.90
52397;DHT22;38322;53.108;6.308;2024-02-26T13:23:04;5.30;99.90
52397;DHT22;38322;53.108;6.308;2024-02-26T13:25:31;5.30;99.90
52397;DHT22;38322;53.108;6.308;2024-02-26T13:30:33;5.30;99.90
52397;DHT22;38322;53.108;6.308;2024-02-26T13:33:07;5.30;99.90
52397;DHT22;38322;53.108;6.308;2024-02-26T13:35:34;5.30;99.90
52397;DHT22;38322;53.108;6.308;2024-02-26T13:38:00;5.30;99.90
52397;DHT22;38322;53.108;6.308;2024-02-26T13:40:26;5.30;99.90
52397;DHT22;38322;53.108;6.308;2024-02-26T13:42:52;5.30;99.90
52397;DHT22;38322;53.108;6.308;2024-02-26T13:45:18;5.40;99.90
52397;DHT22;38322;53.108;6.308;2024-02-26T13:47:44;5.40;99.90
52397;DHT22;38322;53.108;6.308;2024-02-26T13:50:10;5.30;99.90
52397;DHT22;38322;53.108;6.308;2024-02-26T13:52:36;5.30;99.90
52397;DHT22;38322;53.108;6.308;2024-02-26T13:55:01;5.30;99.90
52397;DHT22;38322;53.108;6.308;2024-02-26T13:57:29;5.20;99.90
52397;DHT22;38322;53.108;6.308;2024-02-26T13:59:55;5.30;99.90
52397;DHT22;38322;53.108;6.308;2024-02-26T14:02:21;5.30;99.90
52397;DHT22;38322;53.108;6.308;2024-02-26T14:04:47;5.30;99.90
52397;DHT22;38322;53.108;6.308;2024-02-26T14:07:13;5.30;99.90
52397;DHT22;38322;53.108;6.308;2024-02-26T14:09:39;5.30;99.90
52397;DHT22;38322;53.108;6.308;2024-02-26T14:12:05;5.20;99.90
52397;DHT22;38322;53.108;6.308;2024-02-26T14:14:31;5.20;99.90
52397;DHT22;38322;53.108;6.308;2024-02-26T14:17:01;5.20;99.90
52397;DHT22;38322;53.108;6.308;2024-02-26T14:19:28;5.20;99.90
52397;DHT22;38322;53.108;6.308;2024-02-26T14:21:54;5.20;99.90
52397;DHT22;38322;53.108;6.308;2024-02-26T14:24:20;5.20;99.90
52397;DHT22;38322;53.108;6.308;2024-02-26T14:26:46;5.20;99.90
52397;DHT22;38322;53.108;6.308;2024-02-26T14:29:12;5.20;99.90
52397;DHT22;38322;53.108;6.308;2024-02-26T14:31:37;5.20;99.90
52397;DHT22;38322;53.108;6.308;2024-02-26T14:34:03;5.20;99.90
52397;DHT22;38322;53.108;6.308;2024-02-26T14:36:29;5.20;99.90
52397;DHT22;38322;53.108;6.308;2024-02-26T14:38:55;5.20;99.90
52397;DHT22;38322;53.108;6.308;2024-02-26T14:41:21;5.10;99.90
52397;DHT22;38322;53.108;6.308;2024-02-26T14:43:47;5.20;99.90
52397;DHT22;38322;53.108;6.308;2024-02-26T14:46:13;5.10;99.90
52397;DHT22;38322;53.108;6.308;2024-02-26T14:48:39;5.10;99.90
52397;DHT22;38322;53.108;6.308;2024-02-26T14:51:05;5.10;99.90
52397;DHT22;38322;53.108;6.308;2024-02-26T14:53:32;5.10;99.90
52397;DHT22;38322;53.108;6.308;2024-02-26T14:55:58;5.10;99.90
52397;DHT22;38322;53.108;6.308;2024-02-26T14:58:24;5.00;99.90
52397;DHT22;38322;53.108;6.308;2024-02-26T15:00:50;5.10;99.90
52397;DHT22;38322;53.108;6.308;2024-02-26T15:03:16;5.10;99.90
52397;DHT22;38322;53.108;6.308;2024-02-26T15:05:43;5.10;99.90
52397;DHT22;38322;53.108;6.308;2024-02-26T15:08:09;5.10;99.90
52397;DHT22;38322;53.108;6.308;2024-02-26T15:10:35;5.00;99.90
52397;DHT22;38322;53.108;6.308;2024-02-26T15:13:01;5.00;99.90
52397;DHT22;38322;53.108;6.308;2024-02-26T15:15:27;5.00;99.90
52397;DHT22;38322;53.108;6.308;2024-02-26T15:17:53;5.00;99.90
52397;DHT22;38322;53.108;6.308;2024-02-26T15:20:19;5.00;99.90
52397;DHT22;38322;53.108;6.308;2024-02-26T15:22:45;5.00;99.90
52397;DHT22;38322;53.108;6.308;2024-02-26T15:25:12;5.00;99.90
52397;DHT22;38322;53.108;6.308;2024-02-26T15:27:38;5.00;99.90
52397;DHT22;38322;53.108;6.308;2024-02-26T15:30:04;5.00;99.90
52397;DHT22;38322;53.108;6.308;2024-02-26T15:32:30;5.00;99.90
52397;DHT22;38322;53.108;6.308;2024-02-26T15:34:56;5.00;99.90
52397;DHT22;38322;53.108;6.308;2024-02-26T15:37:23;5.00;99.90
52397;DHT22;38322;53.108;6.308;2024-02-26T15:39:49;5.00;99.90
52397;DHT22;38322;53.108;6.308;2024-02-26T15:42:15;5.00;99.90
52397;DHT22;38322;53.108;6.308;2024-02-26T15:44:41;5.00;99.90
52397;DHT22;38322;53.108;6.308;2024-02-26T15:47:07;4.90;99.90
52397;DHT22;38322;53.108;6.308;2024-02-26T15:49:33;4.90;99.90
52397;DHT22;38322;53.108;6.308;2024-02-26T15:51:59;4.90;99.90
52397;DHT22;38322;53.108;6.308;2024-02-26T15:54:25;4.90;99.90
52397;DHT22;38322;53.108;6.308;2024-02-26T15:56:51;4.90;99.90
52397;DHT22;38322;53.108;6.308;2024-02-26T15:59:17;4.90;99.90
52397;DHT22;38322;53.108;6.308;2024-02-26T16:01:44;4.90;99.90
52397;DHT22;38322;53.108;6.308;2024-02-26T16:04:10;4.90;99.90
52397;DHT22;38322;53.108;6.308;2024-02-26T16:06:46;4.90;99.90
52397;DHT22;38322;53.108;6.308;2024-02-26T16:09:12;4.90;99.90
52397;DHT22;38322;53.108;6.308;2024-02-26T16:11:38;4.90;99.90
52397;DHT22;38322;53.108;6.308;2024-02-26T16:17:25;4.90;99.90
52397;DHT22;38322;53.108;6.308;2024-02-26T16:19:57;4.80;99.90
52397;DHT22;38322;53.108;6.308;2024-02-26T16:22:24;4.80;99.90
52397;DHT22;38322;53.108;6.308;2024-02-26T16:24:50;4.80;99.90
52397;DHT22;38322;53.108;6.308;2024-02-26T16:27:16;4.80;99.90
52397;DHT22;38322;53.108;6.308;2024-02-26T16:29:42;4.80;99.90
52397;DHT22;38322;53.108;6.308;2024-02-26T16:32:08;4.80;99.90
52397;DHT22;38322;53.108;6.308;2024-02-26T16:34:34;4.80;99.90
52397;DHT22;38322;53.108;6.308;2024-02-26T16:37:08;4.70;99.90
52397;DHT22;38322;53.108;6.308;2024-02-26T16:39:37;4.80;99.90
52397;DHT22;38322;53.108;6.308;2024-02-26T16:42:04;4.70;99.90
52397;DHT22;38322;53.108;6.308;2024-02-26T16:44:32;4.70;99.90
52397;DHT22;38322;53.108;6.308;2024-02-26T16:46:58;4.70;99.90
52397;DHT22;38322;53.108;6.308;2024-02-26T16:49:24;4.70;99.90
52397;DHT22;38322;53.108;6.308;2024-02-26T16:51:50;4.70;99.90
52397;DHT22;38322;53.108;6.308;2024-02-26T16:54:16;4.80;99.90
52397;DHT22;38322;53.108;6.308;2024-02-26T16:56:42;4.80;99.90
52397;DHT22;38322;53.108;6.308;2024-02-26T16:59:08;4.90;99.90
52397;DHT22;38322;53.108;6.308;2024-02-26T17:01:34;4.70;99.90
52397;DHT22;38322;53.108;6.308;2024-02-26T17:04:00;4.70;99.90
52397;DHT22;38322;53.108;6.308;2024-02-26T17:06:26;4.70;99.90
52397;DHT22;38322;53.108;6.308;2024-02-26T17:08:52;4.70;99.90
52397;DHT22;38322;53.108;6.308;2024-02-26T17:11:18;4.70;99.90
52397;DHT22;38322;53.108;6.308;2024-02-26T17:13:44;4.70;99.90
52397;DHT22;38322;53.108;6.308;2024-02-26T17:16:10;4.70;99.90
52397;DHT22;38322;53.108;6.308;2024-02-26T17:18:36;4.70;99.90
52397;DHT22;38322;53.108;6.308;2024-02-26T17:21:02;4.70;99.90
52397;DHT22;38322;53.108;6.308;2024-02-26T17:23:28;4.70;99.90
52397;DHT22;38322;53.108;6.308;2024-02-26T17:25:58;4.60;99.90
52397;DHT22;38322;53.108;6.308;2024-02-26T17:28:25;4.60;99.90
52397;DHT22;38322;53.108;6.308;2024-02-26T17:30:51;4.60;99.90
52397;DHT22;38322;53.108;6.308;2024-02-26T17:33:17;4.60;99.90
52397;DHT22;38322;53.108;6.308;2024-02-26T17:35:43;4.60;99.90
52397;DHT22;38322;53.108;6.308;2024-02-26T17:38:10;4.50;99.90
52397;DHT22;38322;53.108;6.308;2024-02-26T17:40:36;4.50;99.90
52397;DHT22;38322;53.108;6.308;2024-02-26T17:43:02;4.40;99.90
52397;DHT22;38322;53.108;6.308;2024-02-26T17:45:29;4.40;99.90
52397;DHT22;38322;53.108;6.308;2024-02-26T17:47:55;4.40;99.90
52397;DHT22;38322;53.108;6.308;2024-02-26T17:50:21;4.40;99.90
52397;DHT22;38322;53.108;6.308;2024-02-26T17:52:48;4.40;99.90
52397;DHT22;38322;53.108;6.308;2024-02-26T17:55:18;4.40;99.90
52397;DHT22;38322;53.108;6.308;2024-02-26T17:57:44;4.40;99.90
52397;DHT22;38322;53.108;6.308;2024-02-26T18:00:10;4.40;99.90
52397;DHT22;38322;53.108;6.308;2024-02-26T18:02:36;4.30;99.90
52397;DHT22;38322;53.108;6.308;2024-02-26T18:05:02;4.30;99.90
52397;DHT22;38322;53.108;6.308;2024-02-26T18:07:28;4.30;99.90
52397;DHT22;38322;53.108;6.308;2024-02-26T18:09:54;4.30;99.90
52397;DHT22;38322;53.108;6.308;2024-02-26T18:12:20;4.30;99.90
52397;DHT22;38322;53.108;6.308;2024-02-26T18:14:46;4.20;99.90
52397;DHT22;38322;53.108;6.308;2024-02-26T18:17:12;4.20;99.90
52397;DHT22;38322;53.108;6.308;2024-02-26T18:19:38;4.10;99.90
52397;DHT22;38322;53.108;6.308;2024-02-26T18:22:04;4.10;99.90
52397;DHT22;38322;53.108;6.308;2024-02-26T18:24:30;4.10;99.90
52397;DHT22;38322;53.108;6.308;2024-02-26T18:26:57;4.00;99.90
52397;DHT22;38322;53.108;6.308;2024-02-26T18:29:22;4.00;99.90
52397;DHT22;38322;53.108;6.308;2024-02-26T18:31:48;4.00;99.90
52397;DHT22;38322;53.108;6.308;2024-02-26T18:34:15;4.00;99.90
52397;DHT22;38322;53.108;6.308;2024-02-26T18:36:44;3.90;99.90
52397;DHT22;38322;53.108;6.308;2024-02-26T18:39:09;3.90;99.90
52397;DHT22;38322;53.108;6.308;2024-02-26T18:41:35;3.90;99.90
52397;DHT22;38322;53.108;6.308;2024-02-26T18:44:01;3.90;99.90
52397;DHT22;38322;53.108;6.308;2024-02-26T18:46:27;3.80;99.90
52397;DHT22;38322;53.108;6.308;2024-02-26T18:48:53;3.80;99.90
52397;DHT22;38322;53.108;6.308;2024-02-26T18:51:19;3.80;99.90
52397;DHT22;38322;53.108;6.308;2024-02-26T18:53:45;3.80;99.90
52397;DHT22;38322;53.108;6.308;2024-02-26T18:56:12;3.80;99.90
52397;DHT22;38322;53.108;6.308;2024-02-26T18:58:39;3.80;99.90
52397;DHT22;38322;53.108;6.308;2024-02-26T19:01:05;3.80;99.90
52397;DHT22;38322;53.108;6.308;2024-02-26T19:03:31;3.80;99.90
52397;DHT22;38322;53.108;6.308;2024-02-26T19:05:57;3.80;99.90
52397;DHT22;38322;53.108;6.308;2024-02-26T19:08:25;3.80;99.90
52397;DHT22;38322;53.108;6.308;2024-02-26T19:10:51;3.70;99.90
52397;DHT22;38322;53.108;6.308;2024-02-26T19:13:17;3.70;99.90
52397;DHT22;38322;53.108;6.308;2024-02-26T19:15:43;3.70;99.90
52397;DHT22;38322;53.108;6.308;2024-02-26T19:18:12;3.70;99.90
52397;DHT22;38322;53.108;6.308;2024-02-26T19:20:38;3.70;99.90
52397;DHT22;38322;53.108;6.308;2024-02-26T19:23:04;3.60;99.90
52397;DHT22;38322;53.108;6.308;2024-02-26T19:25:30;3.60;99.90
52397;DHT22;38322;53.108;6.308;2024-02-26T19:27:55;3.60;99.90
52397;DHT22;38322;53.108;6.308;2024-02-26T19:30:21;3.60;99.90
52397;DHT22;38322;53.108;6.308;2024-02-26T19:32:47;3.60;99.90
52397;DHT22;38322;53.108;6.308;2024-02-26T19:35:13;3.60;99.90
52397;DHT22;38322;53.108;6.308;2024-02-26T19:37:39;3.60;99.90
52397;DHT22;38322;53.108;6.308;2024-02-26T19:40:06;3.60;99.90
52397;DHT22;38322;53.108;6.308;2024-02-26T19:42:32;3.50;99.90
52397;DHT22;38322;53.108;6.308;2024-02-26T19:44:58;3.50;99.90
52397;DHT22;38322;53.108;6.308;2024-02-26T19:47:26;3.50;99.90
52397;DHT22;38322;53.108;6.308;2024-02-26T19:49:51;3.40;99.90
52397;DHT22;38322;53.108;6.308;2024-02-26T19:52:17;3.40;99.90
52397;DHT22;38322;53.108;6.308;2024-02-26T19:54:45;3.40;99.90
52397;DHT22;38322;53.108;6.308;2024-02-26T19:57:11;3.40;99.90
52397;DHT22;38322;53.108;6.308;2024-02-26T19:59:37;3.40;99.90
52397;DHT22;38322;53.108;6.308;2024-02-26T20:02:03;3.40;99.90
52397;DHT22;38322;53.108;6.308;2024-02-26T20:04:30;3.40;99.90
52397;DHT22;38322;53.108;6.308;2024-02-26T20:06:55;3.40;99.90
52397;DHT22;38322;53.108;6.308;2024-02-26T20:09:21;3.40;99.90
52397;DHT22;38322;53.108;6.308;2024-02-26T20:11:52;3.40;99.90
52397;DHT22;38322;53.108;6.308;2024-02-26T20:14:18;3.50;99.90
52397;DHT22;38322;53.108;6.308;2024-02-26T20:16:44;3.50;99.90
52397;DHT22;38322;53.108;6.308;2024-02-26T20:19:11;3.40;99.90
52397;DHT22;38322;53.108;6.308;2024-02-26T20:21:38;3.40;99.90
52397;DHT22;38322;53.108;6.308;2024-02-26T20:24:07;3.40;99.90
52397;DHT22;38322;53.108;6.308;2024-02-26T20:26:36;3.40;99.90
52397;DHT22;38322;53.108;6.308;2024-02-26T20:29:02;3.40;99.90
52397;DHT22;38322;53.108;6.308;2024-02-26T20:31:28;3.40;99.90
52397;DHT22;38322;53.108;6.308;2024-02-26T20:33:55;3.50;99.90
52397;DHT22;38322;53.108;6.308;2024-02-26T20:36:22;3.40;99.90
52397;DHT22;38322;53.108;6.308;2024-02-26T20:38:48;3.40;99.90
52397;DHT22;38322;53.108;6.308;2024-02-26T20:41:17;3.40;99.90
52397;DHT22;38322;53.108;6.308;2024-02-26T20:43:44;3.40;99.90
52397;DHT22;38322;53.108;6.308;2024-02-26T20:46:09;3.40;99.90
52397;DHT22;38322;53.108;6.308;2024-02-26T20:48:35;3.40;99.90
52397;DHT22;38322;53.108;6.308;2024-02-26T20:51:01;3.30;99.90
52397;DHT22;38322;53.108;6.308;2024-02-26T20:53:27;3.40;99.90
52397;DHT22;38322;53.108;6.308;2024-02-26T20:55:53;3.40;99.90
52397;DHT22;38322;53.108;6.308;2024-02-26T20:58:19;3.30;99.90
